Time,TemperatureF,DewpointF,PressureIn,WindDirection,WindDirectionDegrees,WindSpeedMPH,WindSpeedGustMPH,Humidity,HourlyPrecipIn,Conditions,Clouds,dailyrainin,SolarRadiationWatts/m^2,SoftwareType,DateUTC
2013-04-08 00:03:00,65.0,46.0,-100.00,South,181,7.0,16.0,50,0.00,,,0.00,0.000000,,2013-04-08 04:03:00,
2013-04-08 00:34:00,64.0,47.0,-100.00,South,189,8.0,12.0,54,0.00,,,0.00,0.000000,,2013-04-08 04:34:00,
2013-04-08 00:44:00,64.0,47.0,-100.00,South,189,8.0,12.0,54,0.00,,,0.00,0.000000,,2013-04-08 04:44:00,
2013-04-08 00:53:00,64.0,47.0,-100.00,South,189,8.0,12.0,54,0.00,,,0.00,0.000000,,2013-04-08 04:53:00,
2013-04-08 01:03:00,64.0,47.0,-100.00,South,189,8.0,12.0,54,0.00,,,0.00,0.000000,,2013-04-08 05:03:00,
2013-04-08 01:42:00,63.0,46.0,-100.00,South,183,7.0,12.0,54,0.00,,,0.00,0.000000,,2013-04-08 05:42:00,
2013-04-08 01:53:00,63.0,46.0,-100.00,South,183,7.0,12.0,54,0.00,,,0.00,0.000000,,2013-04-08 05:53:00,
2013-04-08 02:02:00,63.0,46.0,-100.00,South,183,7.0,12.0,54,0.00,,,0.00,0.000000,,2013-04-08 06:02:00,
2013-04-08 02:32:00,62.0,47.0,-100.00,South,190,8.0,15.0,57,0.00,,,0.00,0.000000,,2013-04-08 06:32:00,
2013-04-08 02:43:00,62.0,47.0,-100.00,South,190,8.0,15.0,57,0.00,,,0.00,0.000000,,2013-04-08 06:43:00,
2013-04-08 02:52:00,62.0,47.0,-100.00,South,190,8.0,15.0,57,0.00,,,0.00,0.000000,,2013-04-08 06:52:00,
2013-04-08 03:02:00,62.0,47.0,-100.00,South,190,8.0,15.0,57,0.00,,,0.00,0.000000,,2013-04-08 07:02:00,
2013-04-08 04:43:00,60.0,48.0,-100.00,SSW,192,6.0,9.0,64,-99.99,,,0.00,0.000000,,2013-04-08 08:43:00,
2013-04-08 04:52:00,60.0,48.0,-100.00,SSW,192,6.0,9.0,64,-99.99,,,0.00,0.000000,,2013-04-08 08:52:00,
2013-04-08 05:03:00,60.0,48.0,-100.00,SSW,192,6.0,9.0,64,-99.99,,,0.00,0.000000,,2013-04-08 09:03:00,
2013-04-08 05:43:00,60.0,49.0,-100.00,SSW,196,7.0,10.0,67,0.00,,,0.00,0.000000,,2013-04-08 09:43:00,
2013-04-08 05:53:00,60.0,49.0,-100.00,SSW,196,7.0,10.0,67,0.00,,,0.00,0.000000,,2013-04-08 09:53:00,
2013-04-08 06:03:00,60.0,49.0,-100.00,SSW,196,7.0,10.0,67,0.00,,,0.00,0.000000,,2013-04-08 10:03:00,
2013-04-08 06:33:00,59.0,50.0,-100.00,SSW,197,6.0,11.0,71,0.00,,,0.00,0.000000,,2013-04-08 10:33:00,
2013-04-08 06:43:00,59.0,50.0,-100.00,SSW,197,6.0,11.0,71,0.00,,,0.00,0.000000,,2013-04-08 10:43:00,
2013-04-08 06:53:00,59.0,50.0,-100.00,SSW,197,6.0,11.0,71,0.00,,,0.00,0.000000,,2013-04-08 10:53:00,
2013-04-08 07:03:00,59.0,50.0,-100.00,SSW,197,6.0,11.0,71,0.00,,,0.00,0.000000,,2013-04-08 11:03:00,
2013-04-08 07:33:00,59.0,51.0,-100.00,South,184,4.0,9.0,75,0.00,,,0.00,0.000000,,2013-04-08 11:33:00,
2013-04-08 07:43:00,59.0,51.0,-100.00,South,184,4.0,9.0,75,0.00,,,0.00,0.000000,,2013-04-08 11:43:00,
2013-04-08 07:53:00,59.0,51.0,-100.00,South,184,4.0,9.0,75,0.00,,,0.00,0.000000,,2013-04-08 11:53:00,
2013-04-08 08:03:00,59.0,51.0,-100.00,South,184,4.0,9.0,75,0.00,,,0.00,0.000000,,2013-04-08 12:03:00,
2013-04-08 08:33:00,59.0,51.0,-100.00,SSE,157,4.0,7.0,76,0.00,,,0.00,8.000000,,2013-04-08 12:33:00,
2013-04-08 08:43:00,59.0,51.0,-100.00,SSE,157,4.0,7.0,76,0.00,,,0.00,8.000000,,2013-04-08 12:43:00,
2013-04-08 08:53:00,59.0,51.0,-100.00,SSE,157,4.0,7.0,76,0.00,,,0.00,8.000000,,2013-04-08 12:53:00,
2013-04-08 09:03:00,59.0,51.0,-100.00,SSE,157,4.0,7.0,76,0.00,,,0.00,8.000000,,2013-04-08 13:03:00,
2013-04-08 09:33:00,61.0,54.0,-100.00,SE,145,5.0,9.0,77,0.00,,,0.00,64.000000,,2013-04-08 13:33:00,
2013-04-08 09:43:00,61.0,54.0,-100.00,SE,145,5.0,9.0,77,0.00,,,0.00,64.000000,,2013-04-08 13:43:00,
2013-04-08 09:53:00,61.0,54.0,-100.00,SE,145,5.0,9.0,77,0.00,,,0.00,64.000000,,2013-04-08 13:53:00,
2013-04-08 10:03:00,61.0,54.0,-100.00,SE,145,5.0,9.0,77,0.00,,,0.00,64.000000,,2013-04-08 14:03:00,
2013-04-08 10:33:00,64.0,53.0,-100.00,South,190,7.0,13.0,67,0.00,,,0.00,164.000000,,2013-04-08 14:33:00,
2013-04-08 10:43:00,64.0,53.0,-100.00,South,190,7.0,13.0,67,0.00,,,0.00,164.000000,,2013-04-08 14:43:00,
2013-04-08 10:52:00,64.0,53.0,-100.00,South,190,7.0,13.0,67,0.00,,,0.00,164.000000,,2013-04-08 14:52:00,
2013-04-08 11:02:00,64.0,53.0,-100.00,South,190,7.0,13.0,67,0.00,,,0.00,164.000000,,2013-04-08 15:02:00,
2013-04-08 11:35:00,67.0,54.0,-100.00,SSW,205,8.0,16.0,62,0.00,,,0.00,220.000000,,2013-04-08 15:35:00,
2013-04-08 11:43:00,67.0,54.0,-100.00,SSW,205,8.0,16.0,62,0.00,,,0.00,220.000000,,2013-04-08 15:43:00,
2013-04-08 11:53:00,67.0,54.0,-100.00,SSW,205,8.0,16.0,62,0.00,,,0.00,220.000000,,2013-04-08 15:53:00,
2013-04-08 12:03:00,67.0,54.0,-100.00,SSW,205,8.0,16.0,62,0.00,,,0.00,220.000000,,2013-04-08 16:03:00,
2013-04-08 12:42:00,70.0,55.0,-100.00,SSW,207,7.0,17.0,60,0.00,,,0.00,215.000000,,2013-04-08 16:42:00,
2013-04-08 12:54:00,70.0,55.0,-100.00,SSW,207,7.0,17.0,60,0.00,,,0.00,215.000000,,2013-04-08 16:54:00,
2013-04-08 13:03:00,70.0,55.0,-100.00,SSW,207,7.0,17.0,60,0.00,,,0.00,215.000000,,2013-04-08 17:03:00,
2013-04-08 13:32:00,70.0,55.0,-100.00,South,185,10.0,19.0,58,0.00,,,0.00,219.000000,,2013-04-08 17:32:00,
2013-04-08 13:45:00,70.0,55.0,-100.00,South,185,10.0,19.0,58,0.00,,,0.00,219.000000,,2013-04-08 17:45:00,
2013-04-08 13:53:00,70.0,55.0,-100.00,South,185,10.0,19.0,58,0.00,,,0.00,219.000000,,2013-04-08 17:53:00,
2013-04-08 14:02:00,70.0,55.0,-100.00,South,185,10.0,19.0,58,0.00,,,0.00,219.000000,,2013-04-08 18:02:00,
2013-04-08 14:32:00,71.0,52.0,-100.00,SSW,205,9.0,18.0,52,0.00,,,0.00,209.000000,,2013-04-08 18:32:00,
2013-04-08 14:42:00,71.0,52.0,-100.00,SSW,205,9.0,18.0,52,0.00,,,0.00,209.000000,,2013-04-08 18:42:00,
2013-04-08 14:53:00,71.0,52.0,-100.00,SSW,205,9.0,18.0,52,0.00,,,0.00,209.000000,,2013-04-08 18:53:00,
2013-04-08 15:03:00,71.0,52.0,-100.00,SSW,205,9.0,18.0,52,0.00,,,0.00,209.000000,,2013-04-08 19:03:00,
2013-04-08 15:34:00,72.0,52.0,-100.00,SSW,200,8.0,16.0,50,0.00,,,0.00,139.000000,,2013-04-08 19:34:00,
2013-04-08 15:43:00,72.0,52.0,-100.00,SSW,200,8.0,16.0,50,0.00,,,0.00,139.000000,,2013-04-08 19:43:00,
2013-04-08 15:53:00,72.0,52.0,-100.00,SSW,200,8.0,16.0,50,0.00,,,0.00,139.000000,,2013-04-08 19:53:00,
2013-04-08 16:02:00,72.0,52.0,-100.00,SSW,200,8.0,16.0,50,0.00,,,0.00,139.000000,,2013-04-08 20:02:00,
2013-04-08 16:33:00,72.0,51.0,-100.00,SSW,203,9.0,16.0,48,0.00,,,0.00,168.000000,,2013-04-08 20:33:00,
2013-04-08 16:43:00,72.0,51.0,-100.00,SSW,203,9.0,16.0,48,0.00,,,0.00,168.000000,,2013-04-08 20:43:00,
2013-04-08 16:52:00,72.0,51.0,-100.00,SSW,203,9.0,16.0,48,0.00,,,0.00,168.000000,,2013-04-08 20:52:00,
2013-04-08 17:02:00,72.0,51.0,-100.00,SSW,203,9.0,16.0,48,0.00,,,0.00,168.000000,,2013-04-08 21:02:00,
2013-04-08 17:33:00,73.0,52.0,-100.00,SSW,205,8.0,16.0,47,0.00,,,0.00,138.000000,,2013-04-08 21:33:00,
2013-04-08 17:43:00,73.0,52.0,-100.00,SSW,205,8.0,16.0,47,0.00,,,0.00,138.000000,,2013-04-08 21:43:00,
2013-04-08 17:53:00,73.0,52.0,-100.00,SSW,205,8.0,16.0,47,0.00,,,0.00,138.000000,,2013-04-08 21:53:00,
2013-04-08 18:03:00,73.0,52.0,-100.00,SSW,205,8.0,16.0,47,0.00,,,0.00,138.000000,,2013-04-08 22:03:00,
2013-04-08 18:44:00,72.0,49.0,-100.00,SSW,194,6.0,15.0,45,0.00,,,0.00,95.000000,,2013-04-08 22:44:00,
2013-04-08 18:53:00,72.0,49.0,-100.00,SSW,194,6.0,15.0,45,0.00,,,0.00,95.000000,,2013-04-08 22:53:00,
2013-04-08 19:03:00,72.0,49.0,-100.00,SSW,194,6.0,15.0,45,0.00,,,0.00,95.000000,,2013-04-08 23:03:00,
2013-04-08 19:32:00,73.0,51.0,-100.00,South,188,8.0,17.0,46,0.00,,,0.00,115.000000,,2013-04-08 23:32:00,
2013-04-08 19:43:00,73.0,51.0,-100.00,South,188,8.0,17.0,46,0.00,,,0.00,115.000000,,2013-04-08 23:43:00,
2013-04-08 19:52:00,73.0,51.0,-100.00,South,188,8.0,17.0,46,0.00,,,0.00,115.000000,,2013-04-08 23:52:00,
2013-04-08 20:02:00,73.0,51.0,-100.00,South,188,8.0,17.0,46,0.00,,,0.00,115.000000,,2013-04-09 00:02:00,
2013-04-08 21:34:00,69.0,50.0,-100.00,SSE,158,9.0,14.0,51,-99.99,,,0.00,0.000000,,2013-04-09 01:34:00,
2013-04-08 21:42:00,69.0,50.0,-100.00,SSE,158,9.0,14.0,51,-99.99,,,0.00,0.000000,,2013-04-09 01:42:00,
2013-04-08 21:53:00,69.0,50.0,-100.00,SSE,158,9.0,14.0,51,-99.99,,,0.00,0.000000,,2013-04-09 01:53:00,
2013-04-08 22:02:00,69.0,50.0,-100.00,SSE,158,9.0,14.0,51,-99.99,,,0.00,0.000000,,2013-04-09 02:02:00,
2013-04-08 22:33:00,69.0,51.0,-100.00,SSE,168,8.0,14.0,53,0.00,,,0.00,0.000000,,2013-04-09 02:33:00,
2013-04-08 22:44:00,69.0,51.0,-100.00,SSE,168,8.0,14.0,53,0.00,,,0.00,0.000000,,2013-04-09 02:44:00,
2013-04-08 22:52:00,69.0,51.0,-100.00,SSE,168,8.0,14.0,53,0.00,,,0.00,0.000000,,2013-04-09 02:52:00,
2013-04-08 23:02:00,69.0,51.0,-100.00,SSE,168,8.0,14.0,53,0.00,,,0.00,0.000000,,2013-04-09 03:02:00,
2013-04-08 23:33:00,68.0,51.0,-100.00,South,174,8.0,12.0,55,0.00,,,0.00,0.000000,,2013-04-09 03:33:00,
2013-04-08 23:43:00,68.0,51.0,-100.00,South,174,8.0,12.0,55,0.00,,,0.00,0.000000,,2013-04-09 03:43:00,
2013-04-08 23:53:00,68.0,51.0,-100.00,South,174,8.0,12.0,55,0.00,,,0.00,0.000000,,2013-04-09 03:53:00,